createdAt,value
2022-10-28T00:01:18.116Z,141.00
2022-10-28T00:03:48.180Z,145.13
2022-10-28T00:06:20.925Z,147.02
2022-10-28T00:08:48.052Z,152.88
2022-10-28T00:11:20.607Z,145.20
2022-10-28T00:13:47.919Z,146.60
2022-10-28T00:16:21.219Z,148.32
2022-10-28T00:18:48.217Z,147.57
2022-10-28T00:21:17.834Z,140.75
2022-10-28T00:23:44.977Z,139.90
2022-10-28T00:26:14.565Z,149.27
2022-10-28T00:28:43.156Z,154.50
2022-10-28T00:31:11.617Z,144.38
2022-10-28T00:33:38.649Z,143.27
2022-10-28T00:36:13.812Z,146.38
2022-10-28T00:38:41.548Z,143.52
2022-10-28T00:41:09.712Z,142.13
2022-10-28T00:43:37.732Z,141.93
2022-10-28T00:46:08.188Z,141.02
2022-10-28T00:48:34.862Z,141.45
2022-10-28T00:51:02.936Z,140.23
2022-10-28T00:53:31.511Z,137.05
2022-10-28T00:56:00.540Z,146.27
2022-10-28T00:58:27.912Z,141.23
2022-10-28T01:00:54.844Z,148.57
2022-10-28T01:03:21.436Z,139.95
2022-10-28T01:05:55.502Z,140.05
2022-10-28T01:08:22.185Z,145.88
2022-10-28T01:11:20.301Z,140.82
2022-10-28T01:13:49.880Z,139.05
2022-10-28T01:16:34.387Z,146.02
2022-10-28T01:19:44.502Z,146.38
2022-10-28T01:25:26.948Z,138.05
2022-10-28T01:28:31.437Z,138.20
2022-10-28T01:31:21.622Z,141.35
2022-10-28T01:34:00.429Z,138.45
2022-10-28T01:36:32.979Z,138.00
2022-10-28T01:39:28.628Z,138.55
2022-10-28T01:42:09.789Z,135.18
2022-10-28T01:44:52.192Z,134.30
2022-10-28T01:47:41.137Z,144.07
2022-10-28T01:50:26.103Z,146.77
2022-10-28T01:52:57.852Z,143.27
2022-10-28T01:55:33.417Z,136.65
2022-10-28T01:58:02.088Z,136.48
2022-10-28T02:00:30.872Z,135.45
2022-10-28T02:02:57.728Z,140.40
2022-10-28T02:05:55.389Z,141.77
2022-10-28T02:08:33.501Z,132.57
2022-10-28T02:11:18.692Z,137.38
2022-10-28T02:14:11.212Z,130.90
2022-10-28T02:16:51.718Z,139.23
2022-10-28T02:19:43.572Z,133.55
2022-10-28T02:22:37.637Z,131.65
2022-10-28T02:25:28.949Z,139.43
2022-10-28T02:27:58.492Z,139.02
2022-10-28T02:30:38.789Z,136.13
2022-10-28T02:33:10.706Z,127.97
2022-10-28T02:35:43.302Z,134.38
2022-10-28T02:38:16.903Z,134.50
2022-10-28T02:40:49.181Z,136.68
2022-10-28T02:43:17.786Z,134.68
2022-10-28T02:45:48.849Z,141.55
2022-10-28T02:48:46.848Z,135.02
2022-10-28T02:51:17.417Z,132.60
2022-10-28T02:54:09.137Z,133.35
2022-10-28T02:56:43.549Z,135.18
2022-10-28T02:59:12.390Z,137.30
2022-10-28T03:01:39.950Z,135.43
2022-10-28T03:04:06.826Z,134.07
2022-10-28T03:06:33.551Z,134.52
2022-10-28T03:09:00.241Z,144.43
2022-10-28T03:11:26.903Z,138.68
2022-10-28T03:13:53.550Z,130.77
2022-10-28T03:16:20.223Z,143.50
2022-10-28T03:18:47.083Z,132.60
2022-10-28T03:21:13.723Z,134.43
2022-10-28T03:23:40.338Z,131.38
2022-10-28T03:26:07.005Z,145.55
2022-10-28T03:28:33.615Z,133.80
2022-10-28T03:31:00.257Z,131.27
2022-10-28T03:33:27.023Z,132.88
2022-10-28T03:35:53.813Z,145.45
2022-10-28T03:38:20.544Z,131.70
2022-10-28T03:40:51.072Z,132.63
2022-10-28T03:43:18.231Z,141.75
2022-10-28T03:45:45.234Z,139.38
2022-10-28T03:48:12.066Z,136.38
2022-10-28T03:50:38.755Z,131.23
2022-10-28T03:53:05.427Z,136.20
2022-10-28T03:55:32.102Z,140.43
2022-10-28T03:58:02.663Z,132.75
2022-10-28T04:00:29.628Z,142.07
2022-10-28T04:02:56.638Z,141.15
2022-10-28T04:05:23.607Z,136.25
2022-10-28T04:07:50.759Z,134.65
2022-10-28T04:10:17.584Z,142.25
2022-10-28T04:12:44.253Z,139.88
2022-10-28T04:15:11.026Z,148.57
2022-10-28T04:17:37.673Z,135.32
2022-10-28T04:20:04.870Z,149.65
2022-10-28T04:22:31.691Z,138.05
2022-10-28T04:24:58.380Z,141.65
2022-10-28T04:27:25.120Z,136.02
2022-10-28T04:29:51.785Z,130.45
2022-10-28T04:32:18.466Z,147.82
2022-10-28T04:34:45.094Z,136.13
2022-10-28T04:37:11.739Z,136.27
2022-10-28T04:39:38.355Z,148.25
2022-10-28T04:42:04.963Z,139.20
2022-10-28T04:44:31.584Z,141.55
2022-10-28T04:46:58.253Z,136.32
2022-10-28T04:49:24.922Z,144.90
2022-10-28T04:51:51.640Z,143.35
2022-10-28T04:54:18.328Z,142.90
2022-10-28T04:56:44.965Z,137.82
2022-10-28T04:59:11.604Z,147.77
2022-10-28T05:01:38.513Z,142.77
2022-10-28T05:04:05.259Z,143.65
2022-10-28T05:06:31.922Z,144.93
2022-10-28T05:08:58.536Z,145.55
2022-10-28T05:11:25.220Z,144.50
2022-10-28T05:13:53.228Z,142.68
2022-10-28T05:16:20.557Z,148.07
2022-10-28T05:18:47.484Z,143.07
2022-10-28T05:21:14.122Z,146.85
2022-10-28T05:23:40.959Z,139.30
2022-10-28T05:26:07.807Z,137.57
2022-10-28T05:28:34.505Z,136.25
2022-10-28T05:31:01.183Z,141.32
2022-10-28T05:33:27.844Z,149.05
2022-10-28T05:35:54.456Z,144.43
2022-10-28T05:38:21.082Z,137.18
2022-10-28T05:40:47.694Z,145.80
2022-10-28T05:43:14.280Z,150.75
2022-10-28T05:45:40.888Z,145.95
2022-10-28T05:48:07.579Z,146.63
2022-10-28T05:50:34.288Z,132.05
2022-10-28T05:53:01.061Z,139.73
2022-10-28T05:55:29.631Z,132.20
2022-10-28T05:57:57.068Z,142.77
2022-10-28T06:00:25.823Z,145.18
2022-10-28T06:02:53.187Z,143.80
2022-10-28T06:05:20.552Z,139.52
2022-10-28T06:07:47.316Z,146.02
2022-10-28T06:10:14.163Z,130.18
2022-10-28T06:12:39.330Z,149.02
2022-10-28T06:15:06.581Z,148.93
2022-10-28T06:17:33.227Z,149.30
2022-10-28T06:20:00.221Z,144.18
2022-10-28T06:22:26.906Z,140.32
2022-10-28T06:24:53.503Z,148.75
2022-10-28T06:27:20.266Z,143.20
2022-10-28T06:29:46.893Z,135.48
2022-10-28T06:32:13.522Z,135.43
2022-10-28T06:34:40.147Z,142.50
2022-10-28T06:37:06.793Z,138.65
2022-10-28T06:39:33.436Z,140.48
2022-10-28T06:42:00.058Z,146.40
2022-10-28T06:44:26.710Z,133.93
2022-10-28T06:46:55.974Z,153.82
2022-10-28T06:49:22.600Z,150.60
2022-10-28T06:51:50.045Z,137.20
2022-10-28T06:54:16.711Z,141.07
2022-10-28T06:56:45.267Z,146.35
2022-10-28T06:59:11.944Z,152.68
2022-10-28T07:01:38.854Z,140.32
2022-10-28T07:04:06.478Z,151.98
2022-10-28T07:06:33.091Z,147.98
2022-10-28T07:09:00.006Z,151.88
2022-10-28T07:11:26.610Z,143.68
2022-10-28T07:13:53.176Z,149.18
2022-10-28T07:16:19.797Z,138.00
2022-10-28T07:18:47.366Z,152.75
2022-10-28T07:21:14.409Z,145.98
2022-10-28T07:23:40.982Z,142.23
2022-10-28T07:26:07.637Z,151.40
2022-10-28T07:28:34.256Z,143.65
2022-10-28T07:31:02.263Z,143.38
2022-10-28T07:33:29.135Z,142.65
2022-10-28T07:35:55.792Z,143.82
2022-10-28T07:38:22.680Z,147.18
2022-10-28T07:40:49.340Z,146.93
2022-10-28T07:43:15.982Z,145.90
2022-10-28T07:45:42.638Z,148.88
2022-10-28T07:48:09.394Z,144.15
2022-10-28T07:50:36.076Z,148.02
2022-10-28T07:53:02.755Z,146.23
2022-10-28T07:55:29.458Z,152.10
2022-10-28T07:57:56.551Z,148.35
2022-10-28T08:00:23.575Z,152.70
2022-10-28T08:02:50.228Z,153.20
2022-10-28T08:05:18.017Z,158.30
2022-10-28T08:07:46.980Z,158.35
2022-10-28T08:10:13.847Z,149.48
2022-10-28T08:12:41.058Z,155.07
2022-10-28T08:15:10.425Z,155.35
2022-10-28T08:17:37.062Z,161.90
2022-10-28T08:20:04.527Z,161.85
2022-10-28T08:22:31.160Z,151.18
2022-10-28T08:24:58.062Z,160.52
2022-10-28T08:27:24.651Z,161.48
2022-10-28T08:29:53.493Z,162.85
2022-10-28T08:32:20.266Z,158.80
2022-10-28T08:34:47.086Z,160.27
2022-10-28T08:37:16.232Z,163.60
2022-10-28T08:39:43.166Z,160.00
2022-10-28T08:42:42.208Z,168.95
2022-10-28T08:45:20.336Z,157.93
2022-10-28T08:48:13.634Z,155.25
2022-10-28T08:50:49.228Z,157.95
2022-10-28T08:53:25.336Z,163.55
2022-10-28T08:55:55.967Z,164.55
2022-10-28T08:58:33.295Z,158.70
2022-10-28T09:01:00.277Z,161.23
2022-10-28T09:03:39.162Z,165.07
2022-10-28T09:06:08.263Z,170.50
2022-10-28T09:08:41.244Z,162.85
2022-10-28T09:11:10.829Z,165.60
2022-10-28T09:14:03.896Z,162.45
2022-10-28T09:16:46.921Z,170.43
2022-10-28T09:19:49.211Z,167.90
2022-10-28T09:22:24.444Z,161.65
2022-10-28T09:25:20.321Z,164.73
2022-10-28T09:28:10.807Z,164.83
2022-10-28T09:30:51.540Z,167.50
2022-10-28T09:33:18.078Z,163.77
2022-10-28T09:35:47.488Z,169.63
2022-10-28T09:38:28.799Z,165.63
2022-10-28T09:41:01.422Z,169.85
2022-10-28T09:43:27.982Z,167.38
2022-10-28T09:46:02.196Z,178.52
2022-10-28T09:48:33.168Z,170.02
2022-10-28T09:51:01.030Z,170.32
2022-10-28T09:53:44.827Z,168.93
2022-10-28T09:56:11.513Z,166.57
2022-10-28T09:58:42.863Z,167.57
2022-10-28T10:01:09.502Z,167.93
2022-10-28T10:03:36.247Z,172.02
2022-10-28T10:06:17.471Z,175.10
2022-10-28T10:08:45.488Z,160.80
2022-10-28T10:11:24.837Z,169.65
2022-10-28T10:13:52.832Z,166.30
2022-10-28T10:16:47.202Z,164.73
2022-10-28T10:19:13.912Z,163.82
2022-10-28T10:21:45.787Z,164.80
2022-10-28T10:24:45.177Z,164.75
2022-10-28T10:27:19.926Z,161.48
2022-10-28T10:29:49.820Z,163.25
2022-10-28T10:32:22.285Z,164.63
2022-10-28T10:34:54.401Z,170.75
2022-10-28T10:37:22.226Z,169.05
2022-10-28T10:40:07.801Z,165.20
2022-10-28T10:42:39.256Z,204.75
2022-10-28T10:45:21.823Z,165.45
2022-10-28T10:47:48.589Z,174.82
2022-10-28T10:50:23.573Z,163.90
2022-10-28T10:52:54.256Z,170.25
2022-10-28T10:55:27.431Z,170.05
2022-10-28T10:57:55.202Z,163.27
2022-10-28T11:00:25.532Z,164.40
2022-10-28T11:02:55.054Z,168.35
2022-10-28T11:05:27.152Z,164.45
2022-10-28T11:08:04.942Z,173.20
2022-10-28T11:10:34.440Z,170.15
2022-10-28T11:13:24.744Z,172.32
2022-10-28T11:16:02.580Z,160.50
2022-10-28T11:18:42.486Z,168.90
2022-10-28T11:21:30.380Z,168.07
2022-10-28T11:24:00.043Z,173.45
2022-10-28T11:26:27.411Z,171.65
2022-10-28T11:29:13.702Z,172.43
2022-10-28T11:31:49.569Z,163.98
2022-10-28T11:34:34.477Z,170.93
2022-10-28T11:37:31.725Z,170.30
2022-10-28T11:40:38.765Z,178.10
2022-10-28T11:43:20.751Z,164.30
2022-10-28T11:45:51.244Z,170.75
2022-10-28T11:48:55.226Z,163.70
2022-10-28T11:52:03.483Z,177.07
2022-10-28T11:54:46.874Z,173.07
2022-10-28T11:57:17.199Z,164.30
2022-10-28T12:00:25.213Z,165.57
2022-10-28T12:03:19.652Z,168.30
2022-10-28T12:05:59.145Z,159.80
2022-10-28T12:08:28.695Z,169.45
2022-10-28T12:11:09.884Z,171.77
2022-10-28T12:14:12.057Z,168.93
2022-10-28T12:16:54.682Z,172.80
2022-10-28T12:19:43.038Z,174.18
2022-10-28T12:22:19.522Z,169.63
2022-10-28T12:24:47.054Z,164.18
2022-10-28T12:27:26.034Z,171.30
2022-10-28T12:29:58.875Z,170.27
2022-10-28T12:32:36.149Z,173.07
2022-10-28T12:35:14.418Z,169.10
2022-10-28T12:37:58.697Z,162.95
2022-10-28T12:40:29.423Z,167.18
2022-10-28T12:43:39.504Z,171.57
2022-10-28T12:46:19.354Z,175.25
2022-10-28T12:48:54.524Z,165.68
2022-10-28T12:51:27.996Z,174.48
2022-10-28T12:54:12.156Z,175.07
2022-10-28T12:56:44.643Z,168.30
2022-10-28T12:59:22.225Z,168.25
2022-10-28T13:01:50.678Z,169.10
2022-10-28T13:04:18.514Z,165.43
2022-10-28T13:06:48.170Z,173.38
2022-10-28T13:09:38.859Z,170.73
2022-10-28T13:12:06.078Z,173.32
2022-10-28T13:14:32.669Z,177.13
2022-10-28T13:17:31.005Z,179.55
2022-10-28T13:20:25.387Z,177.60
2022-10-28T13:22:52.114Z,174.73
2022-10-28T13:25:41.501Z,173.60
2022-10-28T13:28:15.451Z,174.23
2022-10-28T13:31:11.943Z,182.57
2022-10-28T13:33:46.079Z,175.88
2022-10-28T13:36:20.783Z,171.43
2022-10-28T13:38:59.728Z,169.07
2022-10-28T13:41:37.812Z,176.40
2022-10-28T13:44:10.363Z,169.98
2022-10-28T13:46:59.042Z,175.25
2022-10-28T13:49:30.395Z,177.73
2022-10-28T13:52:13.274Z,171.85
2022-10-28T13:54:42.912Z,170.63
2022-10-28T13:57:33.353Z,174.63
2022-10-28T14:00:06.847Z,172.60
2022-10-28T14:02:47.951Z,176.02
2022-10-28T14:05:18.071Z,170.98
2022-10-28T14:07:56.045Z,173.30
2022-10-28T14:10:29.631Z,170.50
2022-10-28T14:13:06.981Z,170.30
2022-10-28T14:15:37.219Z,175.43
2022-10-28T14:18:37.263Z,165.77
2022-10-28T14:21:00.746Z,169.15
2022-10-28T14:23:27.556Z,175.65
2022-10-28T14:25:54.705Z,171.55
2022-10-28T14:28:27.416Z,170.48
2022-10-28T14:31:09.089Z,171.35
2022-10-28T14:33:36.728Z,172.13
2022-10-28T14:36:18.711Z,173.23
2022-10-28T14:38:57.426Z,173.02
2022-10-28T14:41:36.013Z,175.68
2022-10-28T14:44:24.241Z,173.15
2022-10-28T14:47:12.611Z,173.98
2022-10-28T14:49:40.485Z,169.25
2022-10-28T14:52:19.012Z,172.45
2022-10-28T14:54:55.515Z,171.48
2022-10-28T14:57:31.030Z,173.77
2022-10-28T15:00:07.251Z,171.25
2022-10-28T15:02:37.726Z,183.68
2022-10-28T15:05:21.820Z,172.57
2022-10-28T15:07:48.983Z,167.25
2022-10-28T15:10:18.976Z,167.93
2022-10-28T15:12:48.994Z,173.63
2022-10-28T15:15:22.034Z,173.70
2022-10-28T15:17:48.776Z,175.15
2022-10-28T15:20:26.044Z,175.15
2022-10-28T15:22:54.363Z,178.85
2022-10-28T15:25:23.066Z,171.77
2022-10-28T15:27:52.342Z,175.02
2022-10-28T15:30:23.870Z,170.63
2022-10-28T15:32:52.546Z,170.93
2022-10-28T15:35:28.351Z,171.23
2022-10-28T15:40:31.908Z,189.63
2022-10-28T15:43:02.936Z,177.63
2022-10-28T15:45:32.360Z,172.35
2022-10-28T15:48:00.530Z,173.13
2022-10-28T15:50:35.602Z,186.25
2022-10-28T15:53:11.352Z,184.80
2022-10-28T15:56:06.635Z,178.73
2022-10-28T15:58:38.543Z,172.85
2022-10-28T16:01:10.797Z,169.85
2022-10-28T16:03:40.549Z,179.38
2022-10-28T16:06:24.872Z,178.93
2022-10-28T16:09:06.263Z,182.35
2022-10-28T16:11:36.510Z,180.73
2022-10-28T16:14:19.583Z,178.13
2022-10-28T16:16:46.397Z,175.43
2022-10-28T16:19:23.107Z,176.38
2022-10-28T16:21:49.787Z,172.38
2022-10-28T16:24:16.471Z,180.27
2022-10-28T16:26:43.096Z,186.07
2022-10-28T16:29:09.723Z,192.07
2022-10-28T16:31:36.406Z,182.52
2022-10-28T16:34:03.180Z,187.15
2022-10-28T16:36:30.571Z,182.02
2022-10-28T16:38:57.148Z,185.57
2022-10-28T16:41:24.615Z,185.80
2022-10-28T16:43:51.227Z,177.30
2022-10-28T16:46:17.911Z,174.60
2022-10-28T16:48:44.547Z,177.73
2022-10-28T16:51:17.567Z,172.50
2022-10-28T16:53:47.430Z,172.18
2022-10-28T16:56:15.707Z,169.00
2022-10-28T16:58:43.789Z,177.35
2022-10-28T17:01:11.702Z,180.43
2022-10-28T17:03:38.503Z,176.07
2022-10-28T17:06:05.329Z,185.82
2022-10-28T17:09:00.777Z,188.50
2022-10-28T17:11:18.724Z,180.45
2022-10-28T17:13:45.402Z,172.80
2022-10-28T17:16:13.099Z,173.57
2022-10-28T17:18:40.224Z,180.25
2022-10-28T17:21:06.832Z,185.60
2022-10-28T17:23:33.397Z,190.63
2022-10-28T17:26:01.873Z,181.23
2022-10-28T17:28:28.907Z,177.57
2022-10-28T17:31:03.456Z,170.93
2022-10-28T17:33:30.096Z,182.60
2022-10-28T17:36:00.509Z,178.15
2022-10-28T17:38:27.135Z,182.27
2022-10-28T17:40:55.184Z,180.20
2022-10-28T17:43:22.658Z,177.73
2022-10-28T17:45:49.562Z,175.93
2022-10-28T17:48:16.511Z,181.60
2022-10-28T17:50:44.184Z,176.80
2022-10-28T17:53:11.522Z,182.00
2022-10-28T17:55:38.364Z,173.32
2022-10-28T17:58:05.059Z,179.73
2022-10-28T18:00:31.703Z,184.65
2022-10-28T18:02:58.482Z,187.45
2022-10-28T18:05:25.163Z,183.95
2022-10-28T18:07:55.221Z,180.77
2022-10-28T18:10:22.072Z,180.93
2022-10-28T18:12:52.431Z,182.55
2022-10-28T18:15:19.325Z,190.48
2022-10-28T18:17:49.875Z,184.70
2022-10-28T18:20:16.765Z,180.68
2022-10-28T18:22:43.430Z,174.18
2022-10-28T18:25:10.019Z,183.23
2022-10-28T18:27:37.084Z,175.98
2022-10-28T18:30:04.067Z,181.30
2022-10-28T18:32:30.718Z,187.13
2022-10-28T18:34:57.362Z,184.88
2022-10-28T18:37:24.046Z,181.10
2022-10-28T18:39:50.635Z,175.30
2022-10-28T18:42:21.667Z,169.70
2022-10-28T18:44:48.675Z,181.50
2022-10-28T18:47:15.317Z,172.80
2022-10-28T18:49:42.193Z,184.27
2022-10-28T18:52:08.791Z,175.15
2022-10-28T18:54:35.406Z,178.23
2022-10-28T18:57:02.132Z,181.02
2022-10-28T18:59:28.727Z,180.90
2022-10-28T19:01:55.396Z,188.48
2022-10-28T19:04:22.409Z,176.27
2022-10-28T19:06:49.086Z,170.50
2022-10-28T19:09:15.711Z,174.30
2022-10-28T19:11:42.370Z,171.45
2022-10-28T19:14:09.924Z,176.73
2022-10-28T19:16:36.613Z,171.07
2022-10-28T19:19:04.734Z,188.88
2022-10-28T19:21:32.180Z,182.13
2022-10-28T19:23:58.958Z,176.48
2022-10-28T19:26:25.741Z,173.55
2022-10-28T19:28:52.438Z,174.30
2022-10-28T19:31:25.054Z,168.98
2022-10-28T19:33:53.405Z,173.20
2022-10-28T19:36:25.266Z,168.57
2022-10-28T19:38:56.371Z,171.10
2022-10-28T19:41:25.312Z,175.38
2022-10-28T19:43:58.543Z,175.52
2022-10-28T19:46:27.057Z,169.95
2022-10-28T19:48:56.633Z,165.70
2022-10-28T19:51:26.699Z,174.95
2022-10-28T19:54:01.948Z,179.45
2022-10-28T19:56:30.735Z,179.50
2022-10-28T19:58:59.501Z,186.07
2022-10-28T20:01:28.680Z,180.27
2022-10-28T20:03:56.357Z,173.48
2022-10-28T20:06:26.106Z,175.25
2022-10-28T20:08:53.002Z,181.43
2022-10-28T20:11:25.770Z,175.15
2022-10-28T20:14:05.678Z,171.18
2022-10-28T20:16:33.327Z,170.70
2022-10-28T20:19:00.278Z,179.90
2022-10-28T20:21:29.439Z,178.85
2022-10-28T20:23:57.241Z,175.60
2022-10-28T20:26:26.651Z,171.90
2022-10-28T20:28:53.633Z,177.23
2022-10-28T20:31:22.678Z,167.18
2022-10-28T20:33:51.865Z,173.73
2022-10-28T20:36:21.448Z,165.88
2022-10-28T20:38:48.153Z,157.90
2022-10-28T20:41:16.268Z,158.80
2022-10-28T20:43:42.912Z,173.10
2022-10-28T20:46:09.639Z,167.98
2022-10-28T20:48:36.237Z,166.77
2022-10-28T20:51:02.908Z,158.35
2022-10-28T20:53:33.971Z,164.80
2022-10-28T20:56:01.717Z,177.75
2022-10-28T20:58:31.545Z,172.15
2022-10-28T21:01:07.051Z,178.13
2022-10-28T21:03:33.777Z,167.73
2022-10-28T21:06:03.279Z,158.20
2022-10-28T21:08:29.952Z,167.93
2022-10-28T21:10:56.729Z,157.45
2022-10-28T21:13:23.382Z,170.35
2022-10-28T21:15:54.716Z,158.82
2022-10-28T21:18:24.862Z,158.38
2022-10-28T21:20:58.895Z,168.10
2022-10-28T21:23:26.912Z,165.55
2022-10-28T21:26:01.670Z,169.23
2022-10-28T21:28:30.228Z,165.52
2022-10-28T21:31:08.165Z,159.68
2022-10-28T21:33:36.839Z,172.05
2022-10-28T21:36:07.210Z,171.23
2022-10-28T21:38:34.821Z,174.23
2022-10-28T21:41:06.414Z,163.45
2022-10-28T21:43:35.656Z,172.52
2022-10-28T21:46:02.947Z,167.43
2022-10-28T21:48:30.666Z,166.43
2022-10-28T21:50:59.290Z,168.52
2022-10-28T21:53:27.044Z,163.73
2022-10-28T21:56:02.023Z,169.85
2022-10-28T21:58:28.832Z,165.88
2022-10-28T22:01:02.325Z,164.95
2022-10-28T22:03:28.922Z,160.43
2022-10-28T22:05:55.586Z,165.95
2022-10-28T22:08:22.278Z,156.40
2022-10-28T22:10:48.903Z,156.48
2022-10-28T22:13:15.555Z,159.63
2022-10-28T22:15:42.182Z,160.40
2022-10-28T22:18:08.875Z,158.75
2022-10-28T22:20:35.492Z,151.55
2022-10-28T22:23:02.165Z,155.90
2022-10-28T22:25:28.796Z,163.77
2022-10-28T22:27:55.362Z,153.68
2022-10-28T22:30:21.955Z,153.50
2022-10-28T22:32:48.678Z,154.73
2022-10-28T22:35:15.420Z,162.43
2022-10-28T22:37:42.028Z,152.65
2022-10-28T22:40:09.034Z,155.90
2022-10-28T22:42:35.630Z,152.35
2022-10-28T22:45:02.283Z,154.40
2022-10-28T22:47:28.883Z,152.68
2022-10-28T22:49:55.475Z,163.00
2022-10-28T22:52:22.122Z,154.57
2022-10-28T22:54:48.813Z,164.20
2022-10-28T22:57:15.422Z,153.50
2022-10-28T22:59:42.003Z,156.73
2022-10-28T23:02:08.777Z,162.90
2022-10-28T23:04:35.410Z,151.57
2022-10-28T23:07:02.081Z,149.23
2022-10-28T23:09:28.689Z,149.43
2022-10-28T23:11:55.362Z,159.30
2022-10-28T23:14:21.948Z,153.85
2022-10-28T23:16:49.068Z,150.20
2022-10-28T23:19:15.668Z,149.40
2022-10-28T23:21:42.403Z,145.63
2022-10-28T23:24:09.163Z,149.48
2022-10-28T23:26:36.270Z,150.85
2022-10-28T23:29:03.322Z,163.73
2022-10-28T23:31:29.957Z,156.63
2022-10-28T23:33:58.159Z,160.32
2022-10-28T23:36:25.333Z,148.23
2022-10-28T23:38:52.588Z,148.00
2022-10-28T23:41:20.974Z,147.20
2022-10-28T23:43:49.332Z,154.65
2022-10-28T23:46:16.301Z,152.00
2022-10-28T23:48:43.243Z,157.45
2022-10-28T23:51:09.916Z,153.80
2022-10-28T23:53:36.747Z,158.15
2022-10-28T23:56:03.438Z,146.98
2022-10-28T23:58:30.030Z,149.95
